Smoke Signal, Arizona
Current Conditions -  °F | °C
As of 7:53 PM on Friday 21 Nov 2014 (Local Time) from KGUP Reporting Station
Clear Clear  
Wind Chill: -2°   Ceiling: Unl
Heat Index: -2°   Visibility: 10mi
Dew Point: -10°   Wind: 0mph
Humidity: 54%   Direction: NA
Pressure: 30.08"   Gusts: NA
Location:  36.1012°N, 109.584°W
Report Text: KGUP 220253Z AUTO 00000KT 10SM CLR M02/M10 A3008 RMK AO2 SLP224 T10171100 53010
Loading
Personal Weather Stations






























Interactive Weather Map New forecast layout! Learn more

10-Day Weather Forecast

Advertisements
Track Severe Weather on mobile